sensor_id;sensor_type;location;lat;lon;timestamp;P1;durP1;ratioP1;P2;durP2;ratioP2
4290;SDS011;2159;50.906;7.152;2022-09-01T00:01:27;2.40;;;2.30;;
4290;SDS011;2159;50.906;7.152;2022-09-01T00:03:56;2.33;;;2.10;;
4290;SDS011;2159;50.906;7.152;2022-09-01T00:06:25;2.30;;;2.20;;
4290;SDS011;2159;50.906;7.152;2022-09-01T00:08:53;2.40;;;2.30;;
4290;SDS011;2159;50.906;7.152;2022-09-01T00:11:22;2.50;;;2.30;;
4290;SDS011;2159;50.906;7.152;2022-09-01T00:13:50;2.43;;;2.23;;
4290;SDS011;2159;50.906;7.152;2022-09-01T00:16:20;2.20;;;2.10;;
4290;SDS011;2159;50.906;7.152;2022-09-01T00:18:49;4.17;;;2.30;;
4290;SDS011;2159;50.906;7.152;2022-09-01T00:21:18;2.87;;;2.67;;
4290;SDS011;2159;50.906;7.152;2022-09-01T00:23:46;2.50;;;2.40;;
4290;SDS011;2159;50.906;7.152;2022-09-01T00:26:13;4.77;;;2.50;;
4290;SDS011;2159;50.906;7.152;2022-09-01T00:28:41;5.00;;;2.10;;
4290;SDS011;2159;50.906;7.152;2022-09-01T00:31:09;2.13;;;2.03;;
4290;SDS011;2159;50.906;7.152;2022-09-01T00:33:38;2.37;;;2.27;;
4290;SDS011;2159;50.906;7.152;2022-09-01T00:36:06;2.53;;;2.30;;
4290;SDS011;2159;50.906;7.152;2022-09-01T00:38:34;2.50;;;2.20;;
4290;SDS011;2159;50.906;7.152;2022-09-01T00:41:02;2.23;;;2.00;;
4290;SDS011;2159;50.906;7.152;2022-09-01T00:43:36;2.40;;;2.20;;
4290;SDS011;2159;50.906;7.152;2022-09-01T00:46:05;2.30;;;2.17;;
4290;SDS011;2159;50.906;7.152;2022-09-01T00:48:35;2.30;;;2.20;;
4290;SDS011;2159;50.906;7.152;2022-09-01T00:51:06;2.43;;;2.23;;
4290;SDS011;2159;50.906;7.152;2022-09-01T00:53:34;5.23;;;2.10;;
4290;SDS011;2159;50.906;7.152;2022-09-01T00:56:02;2.27;;;2.17;;
4290;SDS011;2159;50.906;7.152;2022-09-01T00:58:30;2.47;;;2.27;;
4290;SDS011;2159;50.906;7.152;2022-09-01T01:00:58;2.90;;;2.13;;
4290;SDS011;2159;50.906;7.152;2022-09-01T01:03:26;2.20;;;2.10;;
4290;SDS011;2159;50.906;7.152;2022-09-01T01:05:56;2.00;;;1.90;;
4290;SDS011;2159;50.906;7.152;2022-09-01T01:08:25;2.20;;;2.10;;
4290;SDS011;2159;50.906;7.152;2022-09-01T01:10:59;2.40;;;2.20;;
4290;SDS011;2159;50.906;7.152;2022-09-01T01:13:27;2.20;;;2.10;;
4290;SDS011;2159;50.906;7.152;2022-09-01T01:16:01;2.30;;;2.20;;
4290;SDS011;2159;50.906;7.152;2022-09-01T01:18:41;2.43;;;2.23;;
4290;SDS011;2159;50.906;7.152;2022-09-01T01:21:12;2.33;;;2.23;;
4290;SDS011;2159;50.906;7.152;2022-09-01T01:24:00;2.33;;;2.20;;
4290;SDS011;2159;50.906;7.152;2022-09-01T01:26:29;2.43;;;2.23;;
4290;SDS011;2159;50.906;7.152;2022-09-01T01:28:57;4.40;;;2.33;;
4290;SDS011;2159;50.906;7.152;2022-09-01T01:31:28;2.37;;;2.10;;
4290;SDS011;2159;50.906;7.152;2022-09-01T01:33:57;2.50;;;2.40;;
4290;SDS011;2159;50.906;7.152;2022-09-01T01:36:28;5.13;;;2.30;;
4290;SDS011;2159;50.906;7.152;2022-09-01T01:38:57;2.20;;;2.10;;
4290;SDS011;2159;50.906;7.152;2022-09-01T01:41:29;2.33;;;2.17;;
4290;SDS011;2159;50.906;7.152;2022-09-01T01:43:58;2.30;;;2.20;;
4290;SDS011;2159;50.906;7.152;2022-09-01T01:46:29;3.13;;;2.23;;
4290;SDS011;2159;50.906;7.152;2022-09-01T01:48:57;2.40;;;2.30;;
4290;SDS011;2159;50.906;7.152;2022-09-01T01:51:27;2.20;;;2.10;;
4290;SDS011;2159;50.906;7.152;2022-09-01T01:53:57;2.10;;;2.00;;
4290;SDS011;2159;50.906;7.152;2022-09-01T01:56:26;2.87;;;2.17;;
4290;SDS011;2159;50.906;7.152;2022-09-01T01:58:56;2.00;;;1.90;;
4290;SDS011;2159;50.906;7.152;2022-09-01T02:01:26;2.13;;;2.03;;
4290;SDS011;2159;50.906;7.152;2022-09-01T02:03:54;2.10;;;2.00;;
4290;SDS011;2159;50.906;7.152;2022-09-01T02:06:26;2.40;;;2.10;;
4290;SDS011;2159;50.906;7.152;2022-09-01T02:08:54;3.33;;;2.10;;
4290;SDS011;2159;50.906;7.152;2022-09-01T02:11:23;2.20;;;2.10;;
4290;SDS011;2159;50.906;7.152;2022-09-01T02:13:51;2.10;;;2.00;;
4290;SDS011;2159;50.906;7.152;2022-09-01T02:16:23;4.10;;;2.10;;
4290;SDS011;2159;50.906;7.152;2022-09-01T02:18:51;4.13;;;2.40;;
4290;SDS011;2159;50.906;7.152;2022-09-01T02:21:20;2.23;;;2.03;;
4290;SDS011;2159;50.906;7.152;2022-09-01T02:23:48;2.17;;;2.07;;
4290;SDS011;2159;50.906;7.152;2022-09-01T02:26:26;2.10;;;2.00;;
4290;SDS011;2159;50.906;7.152;2022-09-01T02:28:57;2.27;;;2.17;;
4290;SDS011;2159;50.906;7.152;2022-09-01T02:31:28;2.53;;;2.10;;
4290;SDS011;2159;50.906;7.152;2022-09-01T02:33:57;6.93;;;2.43;;
4290;SDS011;2159;50.906;7.152;2022-09-01T02:36:26;4.23;;;2.33;;
4290;SDS011;2159;50.906;7.152;2022-09-01T02:38:54;5.47;;;2.00;;
4290;SDS011;2159;50.906;7.152;2022-09-01T02:41:23;2.20;;;2.10;;
4290;SDS011;2159;50.906;7.152;2022-09-01T02:43:54;2.20;;;1.90;;
4290;SDS011;2159;50.906;7.152;2022-09-01T02:46:22;2.80;;;2.30;;
4290;SDS011;2159;50.906;7.152;2022-09-01T02:48:51;2.83;;;2.33;;
4290;SDS011;2159;50.906;7.152;2022-09-01T02:51:20;2.30;;;2.17;;
4290;SDS011;2159;50.906;7.152;2022-09-01T02:53:49;2.50;;;2.00;;
4290;SDS011;2159;50.906;7.152;2022-09-01T02:56:19;2.37;;;2.27;;
4290;SDS011;2159;50.906;7.152;2022-09-01T02:58:50;2.17;;;2.07;;
4290;SDS011;2159;50.906;7.152;2022-09-01T03:01:19;2.40;;;2.30;;
4290;SDS011;2159;50.906;7.152;2022-09-01T03:03:52;2.27;;;2.10;;
4290;SDS011;2159;50.906;7.152;2022-09-01T03:06:20;2.40;;;2.20;;
4290;SDS011;2159;50.906;7.152;2022-09-01T03:08:50;2.40;;;2.30;;
4290;SDS011;2159;50.906;7.152;2022-09-01T03:11:18;2.30;;;2.10;;
4290;SDS011;2159;50.906;7.152;2022-09-01T03:13:45;2.27;;;2.17;;
4290;SDS011;2159;50.906;7.152;2022-09-01T03:16:13;2.43;;;2.33;;
4290;SDS011;2159;50.906;7.152;2022-09-01T03:18:41;2.10;;;2.00;;
4290;SDS011;2159;50.906;7.152;2022-09-01T03:21:10;3.20;;;1.93;;
4290;SDS011;2159;50.906;7.152;2022-09-01T03:23:43;2.00;;;1.90;;
4290;SDS011;2159;50.906;7.152;2022-09-01T03:26:11;2.50;;;2.30;;
4290;SDS011;2159;50.906;7.152;2022-09-01T03:28:38;2.47;;;2.37;;
4290;SDS011;2159;50.906;7.152;2022-09-01T03:31:06;2.13;;;2.00;;
4290;SDS011;2159;50.906;7.152;2022-09-01T03:33:34;2.30;;;2.10;;
4290;SDS011;2159;50.906;7.152;2022-09-01T03:36:02;5.47;;;2.10;;
4290;SDS011;2159;50.906;7.152;2022-09-01T03:38:41;2.10;;;2.00;;
4290;SDS011;2159;50.906;7.152;2022-09-01T03:41:09;4.47;;;2.53;;
4290;SDS011;2159;50.906;7.152;2022-09-01T03:43:39;2.40;;;2.10;;
4290;SDS011;2159;50.906;7.152;2022-09-01T03:46:13;2.00;;;1.90;;
4290;SDS011;2159;50.906;7.152;2022-09-01T03:48:45;2.30;;;2.10;;
4290;SDS011;2159;50.906;7.152;2022-09-01T03:51:14;3.30;;;2.47;;
4290;SDS011;2159;50.906;7.152;2022-09-01T03:53:43;2.50;;;2.40;;
4290;SDS011;2159;50.906;7.152;2022-09-01T03:56:11;2.20;;;2.10;;
4290;SDS011;2159;50.906;7.152;2022-09-01T03:58:40;2.47;;;2.37;;
4290;SDS011;2159;50.906;7.152;2022-09-01T04:01:12;2.23;;;2.10;;
4290;SDS011;2159;50.906;7.152;2022-09-01T04:03:41;4.43;;;2.80;;
4290;SDS011;2159;50.906;7.152;2022-09-01T04:06:10;2.73;;;2.53;;
4290;SDS011;2159;50.906;7.152;2022-09-01T04:08:38;6.17;;;2.93;;
4290;SDS011;2159;50.906;7.152;2022-09-01T04:11:11;3.10;;;2.60;;
4290;SDS011;2159;50.906;7.152;2022-09-01T04:13:41;4.33;;;2.70;;
4290;SDS011;2159;50.906;7.152;2022-09-01T04:16:15;7.20;;;2.47;;
4290;SDS011;2159;50.906;7.152;2022-09-01T04:19:03;10.30;;;3.10;;
4290;SDS011;2159;50.906;7.152;2022-09-01T04:21:41;4.60;;;2.60;;
4290;SDS011;2159;50.906;7.152;2022-09-01T04:24:10;2.20;;;2.10;;
4290;SDS011;2159;50.906;7.152;2022-09-01T04:26:40;2.40;;;2.30;;
4290;SDS011;2159;50.906;7.152;2022-09-01T04:29:11;2.77;;;2.40;;
4290;SDS011;2159;50.906;7.152;2022-09-01T04:31:38;2.23;;;2.10;;
4290;SDS011;2159;50.906;7.152;2022-09-01T04:34:07;2.73;;;2.53;;
4290;SDS011;2159;50.906;7.152;2022-09-01T04:36:38;2.47;;;2.27;;
4290;SDS011;2159;50.906;7.152;2022-09-01T04:39:06;7.90;;;3.10;;
4290;SDS011;2159;50.906;7.152;2022-09-01T04:41:38;4.27;;;2.50;;
4290;SDS011;2159;50.906;7.152;2022-09-01T04:44:07;2.20;;;2.10;;
4290;SDS011;2159;50.906;7.152;2022-09-01T04:46:36;2.60;;;2.43;;
4290;SDS011;2159;50.906;7.152;2022-09-01T04:49:06;2.60;;;2.40;;
4290;SDS011;2159;50.906;7.152;2022-09-01T04:51:38;3.93;;;2.37;;
4290;SDS011;2159;50.906;7.152;2022-09-01T04:54:06;2.40;;;2.30;;
4290;SDS011;2159;50.906;7.152;2022-09-01T04:56:37;2.60;;;2.40;;
4290;SDS011;2159;50.906;7.152;2022-09-01T04:59:05;2.60;;;2.40;;
4290;SDS011;2159;50.906;7.152;2022-09-01T05:01:35;2.37;;;2.17;;
4290;SDS011;2159;50.906;7.152;2022-09-01T05:04:08;3.53;;;2.20;;
4290;SDS011;2159;50.906;7.152;2022-09-01T05:06:39;2.30;;;2.20;;
4290;SDS011;2159;50.906;7.152;2022-09-01T05:09:07;2.40;;;2.20;;
4290;SDS011;2159;50.906;7.152;2022-09-01T05:11:36;3.07;;;2.30;;
4290;SDS011;2159;50.906;7.152;2022-09-01T05:14:04;2.73;;;2.20;;
4290;SDS011;2159;50.906;7.152;2022-09-01T05:16:32;2.30;;;2.13;;
4290;SDS011;2159;50.906;7.152;2022-09-01T05:19:02;3.53;;;2.60;;
4290;SDS011;2159;50.906;7.152;2022-09-01T05:21:30;2.63;;;2.53;;
4290;SDS011;2159;50.906;7.152;2022-09-01T05:23:57;2.37;;;2.27;;
4290;SDS011;2159;50.906;7.152;2022-09-01T05:26:27;2.53;;;2.43;;
4290;SDS011;2159;50.906;7.152;2022-09-01T05:28:57;3.50;;;2.30;;
4290;SDS011;2159;50.906;7.152;2022-09-01T05:31:26;2.40;;;2.30;;
4290;SDS011;2159;50.906;7.152;2022-09-01T05:34:02;4.27;;;2.70;;
4290;SDS011;2159;50.906;7.152;2022-09-01T05:36:30;3.60;;;2.33;;
4290;SDS011;2159;50.906;7.152;2022-09-01T05:38:59;2.70;;;2.50;;
4290;SDS011;2159;50.906;7.152;2022-09-01T05:41:27;3.67;;;2.53;;
4290;SDS011;2159;50.906;7.152;2022-09-01T05:43:54;2.90;;;2.47;;
4290;SDS011;2159;50.906;7.152;2022-09-01T05:46:26;2.87;;;2.70;;
4290;SDS011;2159;50.906;7.152;2022-09-01T05:48:55;3.10;;;2.60;;
4290;SDS011;2159;50.906;7.152;2022-09-01T05:51:25;3.10;;;2.90;;
4290;SDS011;2159;50.906;7.152;2022-09-01T05:54:14;2.50;;;2.30;;
4290;SDS011;2159;50.906;7.152;2022-09-01T05:56:42;3.00;;;2.60;;
4290;SDS011;2159;50.906;7.152;2022-09-01T05:59:11;2.87;;;2.77;;
4290;SDS011;2159;50.906;7.152;2022-09-01T06:01:49;2.60;;;2.50;;
4290;SDS011;2159;50.906;7.152;2022-09-01T06:04:18;2.47;;;2.37;;
4290;SDS011;2159;50.906;7.152;2022-09-01T06:06:47;3.03;;;2.67;;
4290;SDS011;2159;50.906;7.152;2022-09-01T06:09:35;5.30;;;2.53;;
4290;SDS011;2159;50.906;7.152;2022-09-01T06:12:03;3.10;;;2.27;;
4290;SDS011;2159;50.906;7.152;2022-09-01T06:14:32;3.40;;;2.60;;
4290;SDS011;2159;50.906;7.152;2022-09-01T06:16:59;3.37;;;3.07;;
4290;SDS011;2159;50.906;7.152;2022-09-01T06:19:28;2.63;;;2.47;;
4290;SDS011;2159;50.906;7.152;2022-09-01T06:22:04;3.10;;;2.90;;
4290;SDS011;2159;50.906;7.152;2022-09-01T06:24:31;4.20;;;3.17;;
4290;SDS011;2159;50.906;7.152;2022-09-01T06:26:59;6.70;;;2.80;;
4290;SDS011;2159;50.906;7.152;2022-09-01T06:29:27;3.20;;;3.00;;
4290;SDS011;2159;50.906;7.152;2022-09-01T06:31:56;3.87;;;3.43;;
4290;SDS011;2159;50.906;7.152;2022-09-01T06:34:24;6.73;;;3.13;;
4290;SDS011;2159;50.906;7.152;2022-09-01T06:36:51;3.30;;;3.00;;
4290;SDS011;2159;50.906;7.152;2022-09-01T06:39:20;2.80;;;2.60;;
4290;SDS011;2159;50.906;7.152;2022-09-01T06:41:49;2.90;;;2.60;;
4290;SDS011;2159;50.906;7.152;2022-09-01T06:44:19;3.10;;;2.80;;
4290;SDS011;2159;50.906;7.152;2022-09-01T06:46:48;2.90;;;2.73;;
4290;SDS011;2159;50.906;7.152;2022-09-01T06:49:17;3.33;;;3.00;;
4290;SDS011;2159;50.906;7.152;2022-09-01T06:51:46;2.83;;;2.70;;
4290;SDS011;2159;50.906;7.152;2022-09-01T06:54:14;3.80;;;2.60;;
4290;SDS011;2159;50.906;7.152;2022-09-01T06:56:47;4.73;;;2.60;;
4290;SDS011;2159;50.906;7.152;2022-09-01T06:59:17;3.43;;;2.37;;
4290;SDS011;2159;50.906;7.152;2022-09-01T07:01:45;2.97;;;2.60;;
4290;SDS011;2159;50.906;7.152;2022-09-01T07:04:14;2.47;;;2.30;;
4290;SDS011;2159;50.906;7.152;2022-09-01T07:06:46;2.50;;;2.30;;
4290;SDS011;2159;50.906;7.152;2022-09-01T07:09:25;5.27;;;2.50;;
4290;SDS011;2159;50.906;7.152;2022-09-01T07:12:14;3.73;;;3.27;;
4290;SDS011;2159;50.906;7.152;2022-09-01T07:14:53;5.63;;;2.50;;
4290;SDS011;2159;50.906;7.152;2022-09-01T07:17:40;2.57;;;2.37;;
4290;SDS011;2159;50.906;7.152;2022-09-01T07:20:09;7.33;;;2.37;;
4290;SDS011;2159;50.906;7.152;2022-09-01T07:22:53;5.83;;;2.40;;
4290;SDS011;2159;50.906;7.152;2022-09-01T07:25:37;3.03;;;2.20;;
4290;SDS011;2159;50.906;7.152;2022-09-01T07:28:28;4.40;;;2.00;;
4290;SDS011;2159;50.906;7.152;2022-09-01T07:31:05;2.00;;;1.90;;
4290;SDS011;2159;50.906;7.152;2022-09-01T07:33:55;3.07;;;1.60;;
4290;SDS011;2159;50.906;7.152;2022-09-01T07:36:44;3.23;;;2.00;;
4290;SDS011;2159;50.906;7.152;2022-09-01T07:39:31;2.93;;;1.60;;
4290;SDS011;2159;50.906;7.152;2022-09-01T07:42:17;1.87;;;1.77;;
4290;SDS011;2159;50.906;7.152;2022-09-01T07:45:07;3.23;;;1.80;;
4290;SDS011;2159;50.906;7.152;2022-09-01T07:47:52;5.70;;;1.60;;
4290;SDS011;2159;50.906;7.152;2022-09-01T07:50:20;1.50;;;1.40;;
4290;SDS011;2159;50.906;7.152;2022-09-01T07:53:09;1.80;;;1.70;;
4290;SDS011;2159;50.906;7.152;2022-09-01T07:55:38;4.50;;;1.60;;
4290;SDS011;2159;50.906;7.152;2022-09-01T07:58:09;1.70;;;1.70;;
4290;SDS011;2159;50.906;7.152;2022-09-01T08:00:38;1.80;;;1.70;;
4290;SDS011;2159;50.906;7.152;2022-09-01T08:03:08;1.70;;;1.60;;
4290;SDS011;2159;50.906;7.152;2022-09-01T08:05:36;2.00;;;1.73;;
4290;SDS011;2159;50.906;7.152;2022-09-01T08:08:04;2.90;;;1.40;;
4290;SDS011;2159;50.906;7.152;2022-09-01T08:10:44;1.60;;;1.50;;
4290;SDS011;2159;50.906;7.152;2022-09-01T08:13:14;1.50;;;1.50;;
4290;SDS011;2159;50.906;7.152;2022-09-01T08:15:46;1.90;;;1.80;;
4290;SDS011;2159;50.906;7.152;2022-09-01T08:18:34;3.30;;;1.77;;
4290;SDS011;2159;50.906;7.152;2022-09-01T08:21:17;1.70;;;1.63;;
4290;SDS011;2159;50.906;7.152;2022-09-01T08:23:47;2.10;;;1.60;;
4290;SDS011;2159;50.906;7.152;2022-09-01T08:26:15;1.90;;;1.80;;
4290;SDS011;2159;50.906;7.152;2022-09-01T08:28:44;1.80;;;1.50;;
4290;SDS011;2159;50.906;7.152;2022-09-01T08:31:21;1.73;;;1.63;;
4290;SDS011;2159;50.906;7.152;2022-09-01T08:33:49;2.50;;;1.73;;
4290;SDS011;2159;50.906;7.152;2022-09-01T08:36:18;1.97;;;1.77;;
4290;SDS011;2159;50.906;7.152;2022-09-01T08:38:50;3.57;;;2.00;;
4290;SDS011;2159;50.906;7.152;2022-09-01T08:41:19;2.93;;;1.77;;
4290;SDS011;2159;50.906;7.152;2022-09-01T08:43:57;1.80;;;1.53;;
4290;SDS011;2159;50.906;7.152;2022-09-01T08:46:28;2.10;;;1.70;;
4290;SDS011;2159;50.906;7.152;2022-09-01T08:49:00;1.50;;;1.50;;
4290;SDS011;2159;50.906;7.152;2022-09-01T08:51:50;1.70;;;1.70;;
4290;SDS011;2159;50.906;7.152;2022-09-01T08:54:20;1.70;;;1.60;;
4290;SDS011;2159;50.906;7.152;2022-09-01T08:56:58;1.83;;;1.73;;
4290;SDS011;2159;50.906;7.152;2022-09-01T08:59:26;3.90;;;1.80;;
4290;SDS011;2159;50.906;7.152;2022-09-01T09:01:58;1.80;;;1.70;;
4290;SDS011;2159;50.906;7.152;2022-09-01T09:04:38;2.00;;;1.73;;
4290;SDS011;2159;50.906;7.152;2022-09-01T09:07:14;5.33;;;1.70;;
4290;SDS011;2159;50.906;7.152;2022-09-01T09:09:45;2.30;;;1.70;;
4290;SDS011;2159;50.906;7.152;2022-09-01T09:12:25;1.93;;;1.83;;
4290;SDS011;2159;50.906;7.152;2022-09-01T09:14:58;1.63;;;1.57;;
4290;SDS011;2159;50.906;7.152;2022-09-01T09:17:30;1.73;;;1.63;;
4290;SDS011;2159;50.906;7.152;2022-09-01T09:20:00;1.80;;;1.70;;
4290;SDS011;2159;50.906;7.152;2022-09-01T09:22:29;1.90;;;1.80;;
4290;SDS011;2159;50.906;7.152;2022-09-01T09:24:58;3.73;;;1.60;;
4290;SDS011;2159;50.906;7.152;2022-09-01T09:27:29;4.57;;;1.73;;
4290;SDS011;2159;50.906;7.152;2022-09-01T09:29:58;1.40;;;1.30;;
4290;SDS011;2159;50.906;7.152;2022-09-01T09:32:46;1.90;;;1.80;;
4290;SDS011;2159;50.906;7.152;2022-09-01T09:35:35;5.00;;;1.60;;
4290;SDS011;2159;50.906;7.152;2022-09-01T09:38:16;1.57;;;1.57;;
4290;SDS011;2159;50.906;7.152;2022-09-01T09:40:54;2.10;;;1.67;;
4290;SDS011;2159;50.906;7.152;2022-09-01T09:43:44;1.70;;;1.60;;
4290;SDS011;2159;50.906;7.152;2022-09-01T09:46:21;1.77;;;1.77;;
4290;SDS011;2159;50.906;7.152;2022-09-01T09:51:34;4.70;;;1.93;;
4290;SDS011;2159;50.906;7.152;2022-09-01T09:54:12;1.93;;;1.77;;
4290;SDS011;2159;50.906;7.152;2022-09-01T09:56:40;1.60;;;1.50;;
4290;SDS011;2159;50.906;7.152;2022-09-01T09:59:17;1.90;;;1.80;;
4290;SDS011;2159;50.906;7.152;2022-09-01T10:02:23;1.70;;;1.60;;
4290;SDS011;2159;50.906;7.152;2022-09-01T10:04:53;1.70;;;1.60;;
4290;SDS011;2159;50.906;7.152;2022-09-01T10:07:24;2.67;;;1.83;;
4290;SDS011;2159;50.906;7.152;2022-09-01T10:09:52;1.90;;;1.80;;
4290;SDS011;2159;50.906;7.152;2022-09-01T10:12:21;1.80;;;1.70;;
4290;SDS011;2159;50.906;7.152;2022-09-01T10:14:50;1.93;;;1.83;;
4290;SDS011;2159;50.906;7.152;2022-09-01T10:17:20;1.97;;;1.87;;
4290;SDS011;2159;50.906;7.152;2022-09-01T10:19:52;1.63;;;1.63;;
4290;SDS011;2159;50.906;7.152;2022-09-01T10:22:20;1.60;;;1.50;;
4290;SDS011;2159;50.906;7.152;2022-09-01T10:24:50;2.23;;;2.03;;
4290;SDS011;2159;50.906;7.152;2022-09-01T10:27:19;1.80;;;1.70;;
4290;SDS011;2159;50.906;7.152;2022-09-01T10:29:49;2.30;;;2.10;;
4290;SDS011;2159;50.906;7.152;2022-09-01T10:32:38;1.83;;;1.73;;
4290;SDS011;2159;50.906;7.152;2022-09-01T10:35:17;2.10;;;1.90;;
4290;SDS011;2159;50.906;7.152;2022-09-01T10:37:46;2.03;;;1.93;;
4290;SDS011;2159;50.906;7.152;2022-09-01T10:40:17;2.40;;;1.70;;
4290;SDS011;2159;50.906;7.152;2022-09-01T10:42:56;1.73;;;1.73;;
4290;SDS011;2159;50.906;7.152;2022-09-01T10:45:31;2.70;;;2.00;;
4290;SDS011;2159;50.906;7.152;2022-09-01T10:53:44;1.93;;;1.83;;
4290;SDS011;2159;50.906;7.152;2022-09-01T10:56:14;2.30;;;2.20;;
4290;SDS011;2159;50.906;7.152;2022-09-01T10:58:58;2.60;;;1.80;;
4290;SDS011;2159;50.906;7.152;2022-09-01T11:02:04;2.03;;;1.93;;
4290;SDS011;2159;50.906;7.152;2022-09-01T11:07:50;2.03;;;1.93;;
4290;SDS011;2159;50.906;7.152;2022-09-01T11:10:30;2.40;;;2.20;;
4290;SDS011;2159;50.906;7.152;2022-09-01T11:13:14;3.03;;;2.20;;
4290;SDS011;2159;50.906;7.152;2022-09-01T11:15:45;2.10;;;2.00;;
4290;SDS011;2159;50.906;7.152;2022-09-01T11:18:14;2.83;;;1.90;;
4290;SDS011;2159;50.906;7.152;2022-09-01T11:20:44;4.10;;;2.17;;
4290;SDS011;2159;50.906;7.152;2022-09-01T11:23:19;2.20;;;2.10;;
4290;SDS011;2159;50.906;7.152;2022-09-01T11:25:48;2.67;;;2.47;;
4290;SDS011;2159;50.906;7.152;2022-09-01T11:28:39;2.50;;;2.40;;
4290;SDS011;2159;50.906;7.152;2022-09-01T11:31:20;2.40;;;2.20;;
4290;SDS011;2159;50.906;7.152;2022-09-01T11:33:55;2.30;;;2.20;;
4290;SDS011;2159;50.906;7.152;2022-09-01T11:36:27;2.33;;;2.13;;
4290;SDS011;2159;50.906;7.152;2022-09-01T11:38:58;2.30;;;2.20;;
4290;SDS011;2159;50.906;7.152;2022-09-01T11:41:31;2.50;;;2.40;;
4290;SDS011;2159;50.906;7.152;2022-09-01T11:44:01;2.50;;;2.30;;
4290;SDS011;2159;50.906;7.152;2022-09-01T11:46:30;2.40;;;2.30;;
4290;SDS011;2159;50.906;7.152;2022-09-01T11:49:01;2.60;;;2.40;;
4290;SDS011;2159;50.906;7.152;2022-09-01T11:51:36;3.00;;;2.80;;
4290;SDS011;2159;50.906;7.152;2022-09-01T11:54:05;9.70;;;2.20;;
4290;SDS011;2159;50.906;7.152;2022-09-01T11:56:33;2.33;;;2.20;;
4290;SDS011;2159;50.906;7.152;2022-09-01T11:59:02;2.60;;;2.40;;
4290;SDS011;2159;50.906;7.152;2022-09-01T12:01:30;2.80;;;2.60;;
4290;SDS011;2159;50.906;7.152;2022-09-01T12:04:16;7.50;;;2.80;;
4290;SDS011;2159;50.906;7.152;2022-09-01T12:06:50;2.80;;;2.60;;
4290;SDS011;2159;50.906;7.152;2022-09-01T12:09:17;2.87;;;2.67;;
4290;SDS011;2159;50.906;7.152;2022-09-01T12:11:45;2.97;;;2.87;;
4290;SDS011;2159;50.906;7.152;2022-09-01T12:14:19;2.60;;;2.50;;
4290;SDS011;2159;50.906;7.152;2022-09-01T12:16:55;2.90;;;2.67;;
4290;SDS011;2159;50.906;7.152;2022-09-01T12:19:23;2.93;;;2.73;;
4290;SDS011;2159;50.906;7.152;2022-09-01T12:21:55;3.67;;;2.70;;
4290;SDS011;2159;50.906;7.152;2022-09-01T12:24:23;3.10;;;2.90;;
4290;SDS011;2159;50.906;7.152;2022-09-01T12:26:52;3.57;;;2.63;;
4290;SDS011;2159;50.906;7.152;2022-09-01T12:29:22;3.00;;;2.80;;
4290;SDS011;2159;50.906;7.152;2022-09-01T12:31:52;5.90;;;2.90;;
4290;SDS011;2159;50.906;7.152;2022-09-01T12:34:34;2.57;;;2.33;;
4290;SDS011;2159;50.906;7.152;2022-09-01T12:37:04;3.20;;;2.87;;
4290;SDS011;2159;50.906;7.152;2022-09-01T12:39:32;4.97;;;2.67;;
4290;SDS011;2159;50.906;7.152;2022-09-01T12:42:02;3.07;;;2.87;;
4290;SDS011;2159;50.906;7.152;2022-09-01T12:44:32;3.10;;;2.80;;
4290;SDS011;2159;50.906;7.152;2022-09-01T12:47:01;3.60;;;2.90;;
4290;SDS011;2159;50.906;7.152;2022-09-01T12:49:36;3.27;;;3.07;;
4290;SDS011;2159;50.906;7.152;2022-09-01T12:52:25;3.07;;;2.87;;
4290;SDS011;2159;50.906;7.152;2022-09-01T12:54:54;2.90;;;2.70;;
4290;SDS011;2159;50.906;7.152;2022-09-01T12:57:35;2.80;;;2.60;;
4290;SDS011;2159;50.906;7.152;2022-09-01T13:00:08;2.60;;;2.40;;
4290;SDS011;2159;50.906;7.152;2022-09-01T13:02:41;2.93;;;2.80;;
4290;SDS011;2159;50.906;7.152;2022-09-01T13:05:19;4.27;;;2.70;;
4290;SDS011;2159;50.906;7.152;2022-09-01T13:07:51;2.90;;;2.70;;
4290;SDS011;2159;50.906;7.152;2022-09-01T13:10:20;2.60;;;2.40;;
4290;SDS011;2159;50.906;7.152;2022-09-01T13:12:48;3.67;;;2.60;;
4290;SDS011;2159;50.906;7.152;2022-09-01T13:15:17;2.53;;;2.43;;
4290;SDS011;2159;50.906;7.152;2022-09-01T13:17:45;2.90;;;2.63;;
4290;SDS011;2159;50.906;7.152;2022-09-01T13:20:13;2.87;;;2.67;;
4290;SDS011;2159;50.906;7.152;2022-09-01T13:22:40;5.07;;;3.00;;
4290;SDS011;2159;50.906;7.152;2022-09-01T13:25:10;3.90;;;2.70;;
4290;SDS011;2159;50.906;7.152;2022-09-01T13:27:38;4.50;;;2.63;;
4290;SDS011;2159;50.906;7.152;2022-09-01T13:30:10;3.20;;;2.50;;
4290;SDS011;2159;50.906;7.152;2022-09-01T13:32:40;2.60;;;2.50;;
4290;SDS011;2159;50.906;7.152;2022-09-01T13:35:27;3.13;;;2.83;;
4290;SDS011;2159;50.906;7.152;2022-09-01T13:37:55;3.93;;;2.77;;
4290;SDS011;2159;50.906;7.152;2022-09-01T13:40:22;2.70;;;2.60;;
4290;SDS011;2159;50.906;7.152;2022-09-01T13:42:51;2.90;;;2.73;;
4290;SDS011;2159;50.906;7.152;2022-09-01T13:45:19;3.43;;;2.70;;
4290;SDS011;2159;50.906;7.152;2022-09-01T13:47:51;6.30;;;2.83;;
4290;SDS011;2159;50.906;7.152;2022-09-01T13:50:39;2.80;;;2.70;;
4290;SDS011;2159;50.906;7.152;2022-09-01T13:53:27;2.90;;;2.70;;
4290;SDS011;2159;50.906;7.152;2022-09-01T13:55:55;3.07;;;2.80;;
4290;SDS011;2159;50.906;7.152;2022-09-01T13:58:22;3.00;;;2.90;;
4290;SDS011;2159;50.906;7.152;2022-09-01T14:00:50;2.87;;;2.67;;
4290;SDS011;2159;50.906;7.152;2022-09-01T14:03:20;3.00;;;2.80;;
4290;SDS011;2159;50.906;7.152;2022-09-01T14:05:48;2.90;;;2.80;;
4290;SDS011;2159;50.906;7.152;2022-09-01T14:08:16;2.80;;;2.70;;
4290;SDS011;2159;50.906;7.152;2022-09-01T14:10:45;2.90;;;2.80;;
4290;SDS011;2159;50.906;7.152;2022-09-01T14:13:14;2.80;;;2.60;;
4290;SDS011;2159;50.906;7.152;2022-09-01T14:15:41;4.20;;;2.60;;
4290;SDS011;2159;50.906;7.152;2022-09-01T14:18:09;2.90;;;2.80;;
4290;SDS011;2159;50.906;7.152;2022-09-01T14:20:41;3.00;;;2.80;;
4290;SDS011;2159;50.906;7.152;2022-09-01T14:23:09;2.53;;;2.43;;
4290;SDS011;2159;50.906;7.152;2022-09-01T14:25:41;2.77;;;2.60;;
4290;SDS011;2159;50.906;7.152;2022-09-01T14:28:08;3.00;;;2.90;;
4290;SDS011;2159;50.906;7.152;2022-09-01T14:30:36;2.60;;;2.50;;
4290;SDS011;2159;50.906;7.152;2022-09-01T14:33:05;3.00;;;2.53;;
4290;SDS011;2159;50.906;7.152;2022-09-01T14:35:33;2.70;;;2.60;;
4290;SDS011;2159;50.906;7.152;2022-09-01T14:38:02;6.27;;;2.40;;
4290;SDS011;2159;50.906;7.152;2022-09-01T14:40:30;2.67;;;2.50;;
4290;SDS011;2159;50.906;7.152;2022-09-01T14:42:58;2.30;;;2.20;;
4290;SDS011;2159;50.906;7.152;2022-09-01T14:45:26;2.27;;;2.10;;
4290;SDS011;2159;50.906;7.152;2022-09-01T14:47:55;2.40;;;2.30;;
4290;SDS011;2159;50.906;7.152;2022-09-01T14:50:24;2.47;;;2.27;;
4290;SDS011;2159;50.906;7.152;2022-09-01T14:52:52;2.90;;;2.70;;
4290;SDS011;2159;50.906;7.152;2022-09-01T14:55:22;4.50;;;2.13;;
4290;SDS011;2159;50.906;7.152;2022-09-01T14:57:51;7.10;;;2.63;;
4290;SDS011;2159;50.906;7.152;2022-09-01T15:00:21;2.40;;;2.20;;
4290;SDS011;2159;50.906;7.152;2022-09-01T15:02:50;2.40;;;2.30;;
4290;SDS011;2159;50.906;7.152;2022-09-01T15:05:18;2.57;;;2.40;;
4290;SDS011;2159;50.906;7.152;2022-09-01T15:07:46;2.50;;;2.40;;
4290;SDS011;2159;50.906;7.152;2022-09-01T15:10:14;2.33;;;2.23;;
4290;SDS011;2159;50.906;7.152;2022-09-01T15:12:52;2.50;;;2.40;;
4290;SDS011;2159;50.906;7.152;2022-09-01T15:15:20;2.60;;;2.20;;
4290;SDS011;2159;50.906;7.152;2022-09-01T15:17:47;2.50;;;2.40;;
4290;SDS011;2159;50.906;7.152;2022-09-01T15:20:15;2.10;;;2.10;;
4290;SDS011;2159;50.906;7.152;2022-09-01T15:23:00;2.20;;;2.10;;
4290;SDS011;2159;50.906;7.152;2022-09-01T15:25:28;2.63;;;2.40;;
4290;SDS011;2159;50.906;7.152;2022-09-01T15:27:57;2.50;;;2.40;;
4290;SDS011;2159;50.906;7.152;2022-09-01T15:30:24;3.20;;;2.20;;
4290;SDS011;2159;50.906;7.152;2022-09-01T15:32:53;3.73;;;2.20;;
4290;SDS011;2159;50.906;7.152;2022-09-01T15:35:21;2.97;;;2.37;;
4290;SDS011;2159;50.906;7.152;2022-09-01T15:37:49;2.30;;;2.20;;
4290;SDS011;2159;50.906;7.152;2022-09-01T15:40:17;2.93;;;2.47;;
4290;SDS011;2159;50.906;7.152;2022-09-01T15:42:45;2.70;;;2.50;;
4290;SDS011;2159;50.906;7.152;2022-09-01T15:45:15;2.60;;;2.50;;
4290;SDS011;2159;50.906;7.152;2022-09-01T15:47:43;2.50;;;2.40;;
4290;SDS011;2159;50.906;7.152;2022-09-01T15:50:13;2.63;;;2.43;;
4290;SDS011;2159;50.906;7.152;2022-09-01T15:52:48;2.40;;;2.30;;
4290;SDS011;2159;50.906;7.152;2022-09-01T15:55:16;2.40;;;2.17;;